METAR Data
IDs: Format: Raw Decoded Include TAF

Data at: 2116 UTC 02 Aug 2021

VTSP 022100Z 27013KT 9999 FEW020 28/24 Q1009 WS ALL RWY NOSIG